sensor_id;sensor_type;location;lat;lon;timestamp;P1;durP1;ratioP1;P2;durP2;ratioP2
76176;SDS011;64938;47.696;8.066;2022-11-15T00:00:04;6.53;;;5.93;;
76176;SDS011;64938;47.696;8.066;2022-11-15T00:02:30;7.70;;;6.27;;
76176;SDS011;64938;47.696;8.066;2022-11-15T00:04:56;8.23;;;7.10;;
76176;SDS011;64938;47.696;8.066;2022-11-15T00:07:21;7.00;;;6.23;;
76176;SDS011;64938;47.696;8.066;2022-11-15T00:09:47;7.47;;;6.30;;
76176;SDS011;64938;47.696;8.066;2022-11-15T00:12:12;8.37;;;6.30;;
76176;SDS011;64938;47.696;8.066;2022-11-15T00:14:38;7.83;;;6.40;;
76176;SDS011;64938;47.696;8.066;2022-11-15T00:17:04;6.03;;;5.43;;
76176;SDS011;64938;47.696;8.066;2022-11-15T00:19:29;8.60;;;6.00;;
76176;SDS011;64938;47.696;8.066;2022-11-15T00:21:56;6.80;;;5.70;;
76176;SDS011;64938;47.696;8.066;2022-11-15T00:24:22;7.23;;;6.27;;
76176;SDS011;64938;47.696;8.066;2022-11-15T00:26:47;8.30;;;6.00;;
76176;SDS011;64938;47.696;8.066;2022-11-15T00:29:13;6.93;;;6.33;;
76176;SDS011;64938;47.696;8.066;2022-11-15T00:31:39;9.17;;;8.27;;
76176;SDS011;64938;47.696;8.066;2022-11-15T00:34:04;7.77;;;5.83;;
76176;SDS011;64938;47.696;8.066;2022-11-15T00:36:32;6.87;;;6.20;;
76176;SDS011;64938;47.696;8.066;2022-11-15T00:38:59;7.90;;;6.40;;
76176;SDS011;64938;47.696;8.066;2022-11-15T00:41:25;8.50;;;6.10;;
76176;SDS011;64938;47.696;8.066;2022-11-15T00:43:50;7.47;;;5.97;;
76176;SDS011;64938;47.696;8.066;2022-11-15T00:46:16;6.23;;;5.63;;
76176;SDS011;64938;47.696;8.066;2022-11-15T00:48:41;6.47;;;5.47;;
76176;SDS011;64938;47.696;8.066;2022-11-15T00:51:07;6.87;;;5.77;;
76176;SDS011;64938;47.696;8.066;2022-11-15T00:53:32;6.97;;;6.10;;
76176;SDS011;64938;47.696;8.066;2022-11-15T00:55:58;8.20;;;6.23;;
76176;SDS011;64938;47.696;8.066;2022-11-15T00:58:24;6.47;;;5.80;;
76176;SDS011;64938;47.696;8.066;2022-11-15T01:00:50;7.60;;;6.23;;
76176;SDS011;64938;47.696;8.066;2022-11-15T01:03:16;7.47;;;6.77;;
76176;SDS011;64938;47.696;8.066;2022-11-15T01:05:42;6.40;;;5.80;;
76176;SDS011;64938;47.696;8.066;2022-11-15T01:08:12;6.00;;;5.23;;
76176;SDS011;64938;47.696;8.066;2022-11-15T01:10:41;6.40;;;5.70;;
76176;SDS011;64938;47.696;8.066;2022-11-15T01:13:07;8.00;;;5.90;;
76176;SDS011;64938;47.696;8.066;2022-11-15T01:15:33;7.03;;;5.67;;
76176;SDS011;64938;47.696;8.066;2022-11-15T01:17:58;6.50;;;5.90;;
76176;SDS011;64938;47.696;8.066;2022-11-15T01:20:24;6.07;;;5.30;;
76176;SDS011;64938;47.696;8.066;2022-11-15T01:22:50;6.63;;;5.90;;
76176;SDS011;64938;47.696;8.066;2022-11-15T01:25:15;5.80;;;5.27;;
76176;SDS011;64938;47.696;8.066;2022-11-15T01:27:41;6.57;;;5.90;;
76176;SDS011;64938;47.696;8.066;2022-11-15T01:30:07;6.43;;;5.83;;
76176;SDS011;64938;47.696;8.066;2022-11-15T01:32:33;5.93;;;5.17;;
76176;SDS011;64938;47.696;8.066;2022-11-15T01:34:59;8.03;;;5.00;;
76176;SDS011;64938;47.696;8.066;2022-11-15T01:37:25;6.60;;;5.53;;
76176;SDS011;64938;47.696;8.066;2022-11-15T01:39:50;6.97;;;4.70;;
76176;SDS011;64938;47.696;8.066;2022-11-15T01:42:16;5.50;;;5.00;;
76176;SDS011;64938;47.696;8.066;2022-11-15T01:44:49;5.10;;;4.60;;
76176;SDS011;64938;47.696;8.066;2022-11-15T01:47:17;4.67;;;4.27;;
76176;SDS011;64938;47.696;8.066;2022-11-15T01:49:48;5.60;;;3.83;;
76176;SDS011;64938;47.696;8.066;2022-11-15T01:52:34;6.80;;;5.00;;
76176;SDS011;64938;47.696;8.066;2022-11-15T01:55:03;4.77;;;3.70;;
76176;SDS011;64938;47.696;8.066;2022-11-15T01:57:34;4.13;;;3.83;;
76176;SDS011;64938;47.696;8.066;2022-11-15T02:00:00;4.63;;;3.90;;
76176;SDS011;64938;47.696;8.066;2022-11-15T02:02:28;5.23;;;4.57;;
76176;SDS011;64938;47.696;8.066;2022-11-15T02:04:58;5.60;;;4.47;;
76176;SDS011;64938;47.696;8.066;2022-11-15T02:07:24;5.50;;;4.43;;
76176;SDS011;64938;47.696;8.066;2022-11-15T02:09:49;7.23;;;4.60;;
76176;SDS011;64938;47.696;8.066;2022-11-15T02:12:17;6.80;;;5.20;;
76176;SDS011;64938;47.696;8.066;2022-11-15T02:14:46;5.87;;;5.33;;
76176;SDS011;64938;47.696;8.066;2022-11-15T02:17:21;6.47;;;4.80;;
76176;SDS011;64938;47.696;8.066;2022-11-15T02:20:27;6.93;;;5.20;;
76176;SDS011;64938;47.696;8.066;2022-11-15T02:42:40;5.17;;;4.57;;
76176;SDS011;64938;47.696;8.066;2022-11-15T02:45:30;4.37;;;3.97;;
76176;SDS011;64938;47.696;8.066;2022-11-15T02:47:58;5.57;;;4.70;;
76176;SDS011;64938;47.696;8.066;2022-11-15T02:50:25;5.30;;;4.80;;
76176;SDS011;64938;47.696;8.066;2022-11-15T02:52:52;4.80;;;4.40;;
76176;SDS011;64938;47.696;8.066;2022-11-15T02:55:34;6.87;;;5.17;;
76176;SDS011;64938;47.696;8.066;2022-11-15T03:03:59;5.67;;;4.47;;
76176;SDS011;64938;47.696;8.066;2022-11-15T03:06:48;4.93;;;4.50;;
76176;SDS011;64938;47.696;8.066;2022-11-15T03:22:33;4.80;;;4.30;;
76176;SDS011;64938;47.696;8.066;2022-11-15T03:25:03;5.53;;;4.00;;
76176;SDS011;64938;47.696;8.066;2022-11-15T03:27:33;5.30;;;4.80;;
76176;SDS011;64938;47.696;8.066;2022-11-15T03:30:04;5.57;;;4.50;;
76176;SDS011;64938;47.696;8.066;2022-11-15T03:32:42;4.70;;;4.20;;
76176;SDS011;64938;47.696;8.066;2022-11-15T03:35:12;5.00;;;4.60;;
76176;SDS011;64938;47.696;8.066;2022-11-15T03:37:44;7.30;;;4.10;;
76176;SDS011;64938;47.696;8.066;2022-11-15T03:40:39;4.53;;;4.07;;
76176;SDS011;64938;47.696;8.066;2022-11-15T03:45:49;3.53;;;3.23;;
76176;SDS011;64938;47.696;8.066;2022-11-15T03:48:18;3.40;;;3.10;;
76176;SDS011;64938;47.696;8.066;2022-11-15T03:50:46;2.83;;;2.63;;
76176;SDS011;64938;47.696;8.066;2022-11-15T03:53:12;3.30;;;3.00;;
76176;SDS011;64938;47.696;8.066;2022-11-15T03:55:38;3.20;;;2.90;;
76176;SDS011;64938;47.696;8.066;2022-11-15T03:58:04;2.50;;;2.30;;
76176;SDS011;64938;47.696;8.066;2022-11-15T04:00:29;3.17;;;2.87;;
76176;SDS011;64938;47.696;8.066;2022-11-15T04:02:55;3.57;;;3.20;;
76176;SDS011;64938;47.696;8.066;2022-11-15T04:05:21;2.47;;;2.27;;
76176;SDS011;64938;47.696;8.066;2022-11-15T04:07:47;3.43;;;2.73;;
76176;SDS011;64938;47.696;8.066;2022-11-15T04:10:12;5.57;;;2.50;;
76176;SDS011;64938;47.696;8.066;2022-11-15T04:12:39;1.90;;;1.80;;
76176;SDS011;64938;47.696;8.066;2022-11-15T04:15:16;2.23;;;2.03;;
76176;SDS011;64938;47.696;8.066;2022-11-15T04:17:45;3.00;;;2.00;;
76176;SDS011;64938;47.696;8.066;2022-11-15T04:22:54;4.03;;;2.03;;
76176;SDS011;64938;47.696;8.066;2022-11-15T04:25:41;2.53;;;2.33;;
76176;SDS011;64938;47.696;8.066;2022-11-15T04:28:08;3.60;;;2.50;;
76176;SDS011;64938;47.696;8.066;2022-11-15T04:30:33;2.37;;;1.80;;
76176;SDS011;64938;47.696;8.066;2022-11-15T04:32:59;2.43;;;2.00;;
76176;SDS011;64938;47.696;8.066;2022-11-15T04:35:25;2.47;;;2.27;;
76176;SDS011;64938;47.696;8.066;2022-11-15T04:37:51;2.40;;;2.20;;
76176;SDS011;64938;47.696;8.066;2022-11-15T04:40:16;1.90;;;1.67;;
76176;SDS011;64938;47.696;8.066;2022-11-15T04:42:42;3.30;;;2.13;;
76176;SDS011;64938;47.696;8.066;2022-11-15T04:45:08;2.20;;;2.00;;
76176;SDS011;64938;47.696;8.066;2022-11-15T04:47:34;3.60;;;2.20;;
76176;SDS011;64938;47.696;8.066;2022-11-15T04:50:00;2.47;;;1.93;;
76176;SDS011;64938;47.696;8.066;2022-11-15T04:52:26;2.00;;;1.80;;
76176;SDS011;64938;47.696;8.066;2022-11-15T04:54:52;3.00;;;1.90;;
76176;SDS011;64938;47.696;8.066;2022-11-15T04:57:19;1.60;;;1.50;;
76176;SDS011;64938;47.696;8.066;2022-11-15T04:59:45;2.30;;;1.87;;
76176;SDS011;64938;47.696;8.066;2022-11-15T05:02:10;2.33;;;1.70;;
76176;SDS011;64938;47.696;8.066;2022-11-15T05:04:36;2.30;;;1.70;;
76176;SDS011;64938;47.696;8.066;2022-11-15T05:07:02;1.60;;;1.50;;
76176;SDS011;64938;47.696;8.066;2022-11-15T05:09:29;1.87;;;1.77;;
76176;SDS011;64938;47.696;8.066;2022-11-15T05:11:55;2.27;;;1.70;;
76176;SDS011;64938;47.696;8.066;2022-11-15T05:14:22;1.50;;;1.40;;
76176;SDS011;64938;47.696;8.066;2022-11-15T05:16:47;3.10;;;1.20;;
76176;SDS011;64938;47.696;8.066;2022-11-15T05:19:13;1.60;;;1.50;;
76176;SDS011;64938;47.696;8.066;2022-11-15T05:21:39;2.37;;;1.43;;
76176;SDS011;64938;47.696;8.066;2022-11-15T05:24:04;1.43;;;1.33;;
76176;SDS011;64938;47.696;8.066;2022-11-15T05:26:31;1.40;;;1.30;;
76176;SDS011;64938;47.696;8.066;2022-11-15T05:28:57;1.90;;;1.80;;
76176;SDS011;64938;47.696;8.066;2022-11-15T05:31:24;1.60;;;1.43;;
76176;SDS011;64938;47.696;8.066;2022-11-15T05:33:50;1.63;;;1.33;;
76176;SDS011;64938;47.696;8.066;2022-11-15T05:36:18;1.40;;;1.30;;
76176;SDS011;64938;47.696;8.066;2022-11-15T05:39:03;1.30;;;1.20;;
76176;SDS011;64938;47.696;8.066;2022-11-15T05:41:33;1.77;;;1.67;;
76176;SDS011;64938;47.696;8.066;2022-11-15T05:44:00;1.70;;;1.60;;
76176;SDS011;64938;47.696;8.066;2022-11-15T05:46:27;1.80;;;1.57;;
76176;SDS011;64938;47.696;8.066;2022-11-15T05:48:53;2.07;;;1.57;;
76176;SDS011;64938;47.696;8.066;2022-11-15T05:51:19;1.50;;;1.40;;
76176;SDS011;64938;47.696;8.066;2022-11-15T05:53:46;1.83;;;1.50;;
76176;SDS011;64938;47.696;8.066;2022-11-15T05:56:12;2.53;;;2.33;;
76176;SDS011;64938;47.696;8.066;2022-11-15T05:58:38;1.73;;;1.63;;
76176;SDS011;64938;47.696;8.066;2022-11-15T06:01:04;4.00;;;1.50;;
76176;SDS011;64938;47.696;8.066;2022-11-15T06:03:29;4.23;;;1.90;;
76176;SDS011;64938;47.696;8.066;2022-11-15T06:05:56;1.57;;;1.47;;
76176;SDS011;64938;47.696;8.066;2022-11-15T06:08:22;1.47;;;1.37;;
76176;SDS011;64938;47.696;8.066;2022-11-15T06:10:48;2.13;;;1.30;;
76176;SDS011;64938;47.696;8.066;2022-11-15T06:13:14;1.50;;;1.40;;
76176;SDS011;64938;47.696;8.066;2022-11-15T06:15:39;1.77;;;1.67;;
76176;SDS011;64938;47.696;8.066;2022-11-15T06:18:05;2.27;;;1.53;;
76176;SDS011;64938;47.696;8.066;2022-11-15T06:20:30;2.27;;;2.00;;
76176;SDS011;64938;47.696;8.066;2022-11-15T06:22:57;3.00;;;2.30;;
76176;SDS011;64938;47.696;8.066;2022-11-15T06:25:23;2.00;;;1.80;;
76176;SDS011;64938;47.696;8.066;2022-11-15T06:27:51;4.60;;;2.43;;
76176;SDS011;64938;47.696;8.066;2022-11-15T06:30:17;2.57;;;1.93;;
76176;SDS011;64938;47.696;8.066;2022-11-15T06:32:42;2.30;;;1.90;;
76176;SDS011;64938;47.696;8.066;2022-11-15T06:35:08;1.70;;;1.60;;
76176;SDS011;64938;47.696;8.066;2022-11-15T06:37:34;2.60;;;2.10;;
76176;SDS011;64938;47.696;8.066;2022-11-15T06:39:59;2.10;;;1.90;;
76176;SDS011;64938;47.696;8.066;2022-11-15T06:42:25;1.60;;;1.50;;
76176;SDS011;64938;47.696;8.066;2022-11-15T06:44:50;2.60;;;1.57;;
76176;SDS011;64938;47.696;8.066;2022-11-15T06:47:16;2.27;;;2.07;;
76176;SDS011;64938;47.696;8.066;2022-11-15T06:49:41;2.40;;;2.10;;
76176;SDS011;64938;47.696;8.066;2022-11-15T06:52:07;2.70;;;2.20;;
76176;SDS011;64938;47.696;8.066;2022-11-15T06:54:32;2.30;;;2.20;;
76176;SDS011;64938;47.696;8.066;2022-11-15T06:56:58;4.83;;;1.70;;
76176;SDS011;64938;47.696;8.066;2022-11-15T06:59:23;1.87;;;1.67;;
76176;SDS011;64938;47.696;8.066;2022-11-15T07:01:49;2.10;;;1.73;;
76176;SDS011;64938;47.696;8.066;2022-11-15T07:04:15;2.03;;;1.67;;
76176;SDS011;64938;47.696;8.066;2022-11-15T07:06:41;2.23;;;2.03;;
76176;SDS011;64938;47.696;8.066;2022-11-15T07:09:06;2.60;;;2.40;;
76176;SDS011;64938;47.696;8.066;2022-11-15T07:11:32;2.30;;;2.10;;
76176;SDS011;64938;47.696;8.066;2022-11-15T07:13:59;2.50;;;2.30;;
76176;SDS011;64938;47.696;8.066;2022-11-15T07:16:25;4.00;;;2.53;;
76176;SDS011;64938;47.696;8.066;2022-11-15T07:18:50;2.83;;;2.53;;
76176;SDS011;64938;47.696;8.066;2022-11-15T07:21:16;2.90;;;2.70;;
76176;SDS011;64938;47.696;8.066;2022-11-15T07:23:41;3.53;;;3.23;;
76176;SDS011;64938;47.696;8.066;2022-11-15T07:26:07;4.40;;;4.10;;
76176;SDS011;64938;47.696;8.066;2022-11-15T07:28:33;3.33;;;3.03;;
76176;SDS011;64938;47.696;8.066;2022-11-15T07:31:02;2.70;;;2.23;;
76176;SDS011;64938;47.696;8.066;2022-11-15T07:33:28;2.70;;;2.27;;
76176;SDS011;64938;47.696;8.066;2022-11-15T07:35:57;2.37;;;2.20;;
76176;SDS011;64938;47.696;8.066;2022-11-15T07:38:24;2.00;;;1.90;;
76176;SDS011;64938;47.696;8.066;2022-11-15T07:40:55;2.47;;;2.27;;
76176;SDS011;64938;47.696;8.066;2022-11-15T07:46:29;2.47;;;2.37;;
76176;SDS011;64938;47.696;8.066;2022-11-15T07:48:55;45.20;;;5.53;;
76176;SDS011;64938;47.696;8.066;2022-11-15T07:51:20;50.23;;;6.43;;
76176;SDS011;64938;47.696;8.066;2022-11-15T07:53:46;132.33;;;10.17;;
76176;SDS011;64938;47.696;8.066;2022-11-15T07:56:11;365.37;;;17.97;;
76176;SDS011;64938;47.696;8.066;2022-11-15T07:58:37;26.10;;;4.40;;
76176;SDS011;64938;47.696;8.066;2022-11-15T08:01:03;529.90;;;25.10;;
76176;SDS011;64938;47.696;8.066;2022-11-15T08:03:30;312.40;;;15.70;;
76176;SDS011;64938;47.696;8.066;2022-11-15T08:05:56;211.47;;;10.83;;
76176;SDS011;64938;47.696;8.066;2022-11-15T08:08:22;300.87;;;17.27;;
76176;SDS011;64938;47.696;8.066;2022-11-15T08:10:48;184.13;;;12.67;;
76176;SDS011;64938;47.696;8.066;2022-11-15T08:13:13;185.03;;;12.77;;
76176;SDS011;64938;47.696;8.066;2022-11-15T08:15:39;164.57;;;10.87;;
76176;SDS011;64938;47.696;8.066;2022-11-15T08:18:06;145.30;;;10.30;;
76176;SDS011;64938;47.696;8.066;2022-11-15T08:20:36;173.80;;;10.63;;
76176;SDS011;64938;47.696;8.066;2022-11-15T08:23:03;141.07;;;10.23;;
76176;SDS011;64938;47.696;8.066;2022-11-15T08:25:30;5.30;;;2.70;;
76176;SDS011;64938;47.696;8.066;2022-11-15T08:27:58;18.93;;;3.53;;
76176;SDS011;64938;47.696;8.066;2022-11-15T08:30:24;12.13;;;3.40;;
76176;SDS011;64938;47.696;8.066;2022-11-15T08:32:51;30.20;;;4.87;;
76176;SDS011;64938;47.696;8.066;2022-11-15T08:35:17;11.37;;;3.90;;
76176;SDS011;64938;47.696;8.066;2022-11-15T08:37:44;77.90;;;9.30;;
76176;SDS011;64938;47.696;8.066;2022-11-15T08:40:09;25.30;;;5.63;;
76176;SDS011;64938;47.696;8.066;2022-11-15T08:42:36;16.63;;;5.37;;
76176;SDS011;64938;47.696;8.066;2022-11-15T08:45:02;38.17;;;5.27;;
76176;SDS011;64938;47.696;8.066;2022-11-15T08:47:28;48.57;;;5.57;;
76176;SDS011;64938;47.696;8.066;2022-11-15T08:49:53;59.50;;;6.70;;
76176;SDS011;64938;47.696;8.066;2022-11-15T08:52:19;18.77;;;4.13;;
76176;SDS011;64938;47.696;8.066;2022-11-15T08:54:45;25.27;;;5.93;;
76176;SDS011;64938;47.696;8.066;2022-11-15T08:57:10;191.37;;;13.30;;
76176;SDS011;64938;47.696;8.066;2022-11-15T08:59:36;222.80;;;15.43;;
76176;SDS011;64938;47.696;8.066;2022-11-15T09:02:02;5.07;;;4.37;;
76176;SDS011;64938;47.696;8.066;2022-11-15T09:04:28;6.80;;;5.27;;
76176;SDS011;64938;47.696;8.066;2022-11-15T09:06:54;6.20;;;5.60;;
76176;SDS011;64938;47.696;8.066;2022-11-15T09:09:20;6.23;;;5.73;;
76176;SDS011;64938;47.696;8.066;2022-11-15T09:11:45;6.23;;;5.73;;
76176;SDS011;64938;47.696;8.066;2022-11-15T09:14:11;6.23;;;5.60;;
76176;SDS011;64938;47.696;8.066;2022-11-15T09:16:38;6.63;;;6.03;;
76176;SDS011;64938;47.696;8.066;2022-11-15T09:19:03;5.43;;;5.03;;
76176;SDS011;64938;47.696;8.066;2022-11-15T09:21:29;6.07;;;5.57;;
76176;SDS011;64938;47.696;8.066;2022-11-15T09:23:57;5.50;;;5.00;;
76176;SDS011;64938;47.696;8.066;2022-11-15T09:26:22;5.77;;;5.27;;
76176;SDS011;64938;47.696;8.066;2022-11-15T09:28:48;5.70;;;5.20;;
76176;SDS011;64938;47.696;8.066;2022-11-15T09:31:14;5.77;;;5.27;;
76176;SDS011;64938;47.696;8.066;2022-11-15T09:33:39;6.63;;;6.03;;
76176;SDS011;64938;47.696;8.066;2022-11-15T09:36:06;6.57;;;5.97;;
76176;SDS011;64938;47.696;8.066;2022-11-15T09:38:33;7.27;;;6.57;;
76176;SDS011;64938;47.696;8.066;2022-11-15T09:41:08;9.90;;;8.70;;
76176;SDS011;64938;47.696;8.066;2022-11-15T09:44:02;10.37;;;9.37;;
76176;SDS011;64938;47.696;8.066;2022-11-15T09:49:08;9.87;;;8.53;;
76176;SDS011;64938;47.696;8.066;2022-11-15T09:51:38;8.43;;;7.53;;
76176;SDS011;64938;47.696;8.066;2022-11-15T09:54:16;9.63;;;8.73;;
76176;SDS011;64938;47.696;8.066;2022-11-15T09:57:09;8.63;;;7.60;;
76176;SDS011;64938;47.696;8.066;2022-11-15T10:12:43;5.00;;;3.23;;
76176;SDS011;64938;47.696;8.066;2022-11-15T10:15:14;4.47;;;3.70;;
76176;SDS011;64938;47.696;8.066;2022-11-15T10:36:14;6.40;;;5.70;;
76176;SDS011;64938;47.696;8.066;2022-11-15T10:57:12;3.20;;;2.40;;
76176;SDS011;64938;47.696;8.066;2022-11-15T10:59:42;2.60;;;2.30;;
76176;SDS011;64938;47.696;8.066;2022-11-15T11:04:58;2.50;;;2.30;;
76176;SDS011;64938;47.696;8.066;2022-11-15T11:07:27;2.10;;;1.90;;
76176;SDS011;64938;47.696;8.066;2022-11-15T11:09:57;2.70;;;2.00;;
76176;SDS011;64938;47.696;8.066;2022-11-15T11:12:27;2.30;;;2.10;;
76176;SDS011;64938;47.696;8.066;2022-11-15T11:14:55;2.03;;;1.93;;
76176;SDS011;64938;47.696;8.066;2022-11-15T11:25:34;2.33;;;1.97;;
76176;SDS011;64938;47.696;8.066;2022-11-15T11:28:13;2.33;;;1.47;;
76176;SDS011;64938;47.696;8.066;2022-11-15T11:30:49;1.93;;;1.83;;
76176;SDS011;64938;47.696;8.066;2022-11-15T11:33:32;2.00;;;1.90;;
76176;SDS011;64938;47.696;8.066;2022-11-15T11:38:48;2.27;;;2.07;;
76176;SDS011;64938;47.696;8.066;2022-11-15T11:41:32;1.57;;;1.47;;
76176;SDS011;64938;47.696;8.066;2022-11-15T11:46:47;1.60;;;1.50;;
76176;SDS011;64938;47.696;8.066;2022-11-15T11:49:18;2.10;;;2.00;;
76176;SDS011;64938;47.696;8.066;2022-11-15T11:51:58;1.87;;;1.70;;
76176;SDS011;64938;47.696;8.066;2022-11-15T11:54:32;1.50;;;1.40;;
76176;SDS011;64938;47.696;8.066;2022-11-15T11:57:21;1.93;;;1.60;;
76176;SDS011;64938;47.696;8.066;2022-11-15T11:59:53;2.17;;;1.70;;
76176;SDS011;64938;47.696;8.066;2022-11-15T12:02:28;2.03;;;1.50;;
76176;SDS011;64938;47.696;8.066;2022-11-15T12:05:01;2.33;;;1.50;;
76176;SDS011;64938;47.696;8.066;2022-11-15T12:07:33;2.10;;;1.90;;
76176;SDS011;64938;47.696;8.066;2022-11-15T12:15:36;2.70;;;1.60;;
76176;SDS011;64938;47.696;8.066;2022-11-15T12:18:08;2.20;;;2.00;;
76176;SDS011;64938;47.696;8.066;2022-11-15T12:20:39;2.10;;;1.90;;
76176;SDS011;64938;47.696;8.066;2022-11-15T12:23:08;3.20;;;2.40;;
76176;SDS011;64938;47.696;8.066;2022-11-15T12:25:45;3.43;;;2.80;;
76176;SDS011;64938;47.696;8.066;2022-11-15T12:28:35;3.00;;;2.80;;
76176;SDS011;64938;47.696;8.066;2022-11-15T12:33:55;3.40;;;2.90;;
76176;SDS011;64938;47.696;8.066;2022-11-15T12:39:02;3.80;;;3.50;;
76176;SDS011;64938;47.696;8.066;2022-11-15T12:41:29;3.93;;;3.53;;
76176;SDS011;64938;47.696;8.066;2022-11-15T12:43:57;4.73;;;4.33;;
76176;SDS011;64938;47.696;8.066;2022-11-15T12:49:42;5.83;;;5.43;;
76176;SDS011;64938;47.696;8.066;2022-11-15T12:52:09;6.17;;;5.67;;
76176;SDS011;64938;47.696;8.066;2022-11-15T12:59:54;7.53;;;5.90;;
76176;SDS011;64938;47.696;8.066;2022-11-15T13:02:24;6.17;;;5.47;;
76176;SDS011;64938;47.696;8.066;2022-11-15T13:07:55;7.17;;;6.47;;
76176;SDS011;64938;47.696;8.066;2022-11-15T13:10:30;5.77;;;5.27;;
76176;SDS011;64938;47.696;8.066;2022-11-15T13:12:59;5.37;;;4.97;;
76176;SDS011;64938;47.696;8.066;2022-11-15T13:21:24;5.90;;;5.40;;
76176;SDS011;64938;47.696;8.066;2022-11-15T13:24:13;5.67;;;5.17;;
76176;SDS011;64938;47.696;8.066;2022-11-15T13:26:41;5.93;;;5.00;;
76176;SDS011;64938;47.696;8.066;2022-11-15T13:29:15;5.77;;;5.37;;
76176;SDS011;64938;47.696;8.066;2022-11-15T13:31:43;5.30;;;4.80;;
76176;SDS011;64938;47.696;8.066;2022-11-15T13:34:31;6.57;;;5.13;;
76176;SDS011;64938;47.696;8.066;2022-11-15T13:36:58;5.97;;;5.47;;
76176;SDS011;64938;47.696;8.066;2022-11-15T13:39:27;5.90;;;5.40;;
76176;SDS011;64938;47.696;8.066;2022-11-15T13:42:13;5.90;;;5.40;;
76176;SDS011;64938;47.696;8.066;2022-11-15T13:44:40;5.70;;;5.30;;
76176;SDS011;64938;47.696;8.066;2022-11-15T13:47:21;5.20;;;4.80;;
76176;SDS011;64938;47.696;8.066;2022-11-15T13:49:46;5.40;;;4.90;;
76176;SDS011;64938;47.696;8.066;2022-11-15T13:52:13;6.27;;;5.67;;
76176;SDS011;64938;47.696;8.066;2022-11-15T13:57:21;7.50;;;6.40;;
76176;SDS011;64938;47.696;8.066;2022-11-15T14:02:26;7.23;;;6.73;;
76176;SDS011;64938;47.696;8.066;2022-11-15T14:04:55;8.33;;;7.60;;
76176;SDS011;64938;47.696;8.066;2022-11-15T14:07:24;7.87;;;7.07;;
76176;SDS011;64938;47.696;8.066;2022-11-15T14:09:51;7.50;;;6.83;;
76176;SDS011;64938;47.696;8.066;2022-11-15T14:18:39;7.47;;;6.87;;
76176;SDS011;64938;47.696;8.066;2022-11-15T14:21:06;7.47;;;6.77;;
76176;SDS011;64938;47.696;8.066;2022-11-15T14:23:32;8.00;;;7.40;;
76176;SDS011;64938;47.696;8.066;2022-11-15T14:25:58;7.80;;;6.97;;
76176;SDS011;64938;47.696;8.066;2022-11-15T14:31:14;8.43;;;6.60;;
76176;SDS011;64938;47.696;8.066;2022-11-15T14:34:11;7.23;;;6.63;;
76176;SDS011;64938;47.696;8.066;2022-11-15T14:36:37;8.20;;;7.50;;
76176;SDS011;64938;47.696;8.066;2022-11-15T14:39:03;7.73;;;7.13;;
76176;SDS011;64938;47.696;8.066;2022-11-15T14:41:33;7.03;;;6.47;;
76176;SDS011;64938;47.696;8.066;2022-11-15T14:44:03;7.70;;;6.90;;
76176;SDS011;64938;47.696;8.066;2022-11-15T14:46:29;7.80;;;7.00;;
76176;SDS011;64938;47.696;8.066;2022-11-15T14:48:56;6.87;;;6.27;;
76176;SDS011;64938;47.696;8.066;2022-11-15T14:51:22;6.93;;;6.43;;
76176;SDS011;64938;47.696;8.066;2022-11-15T14:53:47;8.47;;;7.67;;
76176;SDS011;64938;47.696;8.066;2022-11-15T14:56:14;6.60;;;6.10;;
76176;SDS011;64938;47.696;8.066;2022-11-15T14:58:41;8.17;;;7.50;;
76176;SDS011;64938;47.696;8.066;2022-11-15T15:01:13;7.87;;;7.20;;
76176;SDS011;64938;47.696;8.066;2022-11-15T15:03:41;7.20;;;6.60;;
76176;SDS011;64938;47.696;8.066;2022-11-15T15:06:09;7.37;;;6.67;;
76176;SDS011;64938;47.696;8.066;2022-11-15T15:08:35;7.30;;;6.60;;
76176;SDS011;64938;47.696;8.066;2022-11-15T15:11:01;7.00;;;6.40;;
76176;SDS011;64938;47.696;8.066;2022-11-15T15:13:27;5.40;;;4.93;;
76176;SDS011;64938;47.696;8.066;2022-11-15T15:16:01;6.30;;;5.80;;
76176;SDS011;64938;47.696;8.066;2022-11-15T15:18:27;6.57;;;5.90;;
76176;SDS011;64938;47.696;8.066;2022-11-15T15:20:55;6.20;;;5.70;;
76176;SDS011;64938;47.696;8.066;2022-11-15T15:23:22;8.70;;;6.23;;
76176;SDS011;64938;47.696;8.066;2022-11-15T15:25:50;6.37;;;5.87;;
76176;SDS011;64938;47.696;8.066;2022-11-15T15:28:17;5.47;;;5.07;;
76176;SDS011;64938;47.696;8.066;2022-11-15T15:30:43;6.30;;;5.70;;
76176;SDS011;64938;47.696;8.066;2022-11-15T15:33:09;6.60;;;6.00;;
76176;SDS011;64938;47.696;8.066;2022-11-15T15:35:34;6.47;;;5.87;;
76176;SDS011;64938;47.696;8.066;2022-11-15T15:38:00;6.87;;;6.37;;
76176;SDS011;64938;47.696;8.066;2022-11-15T15:40:29;5.70;;;5.10;;
76176;SDS011;64938;47.696;8.066;2022-11-15T15:42:55;5.73;;;5.23;;
76176;SDS011;64938;47.696;8.066;2022-11-15T15:45:21;4.70;;;4.33;;
76176;SDS011;64938;47.696;8.066;2022-11-15T15:47:47;5.20;;;4.70;;
76176;SDS011;64938;47.696;8.066;2022-11-15T15:50:20;4.57;;;4.17;;
76176;SDS011;64938;47.696;8.066;2022-11-15T15:52:49;4.73;;;4.33;;
76176;SDS011;64938;47.696;8.066;2022-11-15T15:55:17;7.23;;;4.83;;
76176;SDS011;64938;47.696;8.066;2022-11-15T15:57:43;4.63;;;4.23;;
76176;SDS011;64938;47.696;8.066;2022-11-15T16:00:09;5.17;;;4.67;;
76176;SDS011;64938;47.696;8.066;2022-11-15T16:02:35;4.57;;;4.13;;
76176;SDS011;64938;47.696;8.066;2022-11-15T16:05:01;4.27;;;3.87;;
76176;SDS011;64938;47.696;8.066;2022-11-15T16:07:31;8.37;;;4.70;;
76176;SDS011;64938;47.696;8.066;2022-11-15T16:09:57;4.83;;;4.33;;
76176;SDS011;64938;47.696;8.066;2022-11-15T16:12:33;5.50;;;4.03;;
76176;SDS011;64938;47.696;8.066;2022-11-15T16:14:59;4.10;;;3.80;;
76176;SDS011;64938;47.696;8.066;2022-11-15T16:17:29;4.60;;;4.20;;
76176;SDS011;64938;47.696;8.066;2022-11-15T16:19:57;5.23;;;4.83;;
76176;SDS011;64938;47.696;8.066;2022-11-15T16:22:23;4.47;;;4.07;;
76176;SDS011;64938;47.696;8.066;2022-11-15T16:25:06;4.30;;;3.70;;
76176;SDS011;64938;47.696;8.066;2022-11-15T16:27:32;4.20;;;3.80;;
76176;SDS011;64938;47.696;8.066;2022-11-15T16:29:58;5.70;;;4.00;;
76176;SDS011;64938;47.696;8.066;2022-11-15T16:32:24;4.40;;;3.90;;
76176;SDS011;64938;47.696;8.066;2022-11-15T16:34:52;6.00;;;4.73;;
76176;SDS011;64938;47.696;8.066;2022-11-15T16:37:21;4.80;;;4.40;;
76176;SDS011;64938;47.696;8.066;2022-11-15T16:39:48;7.20;;;4.53;;
76176;SDS011;64938;47.696;8.066;2022-11-15T16:42:16;4.83;;;4.10;;
76176;SDS011;64938;47.696;8.066;2022-11-15T16:44:42;14.90;;;12.33;;
76176;SDS011;64938;47.696;8.066;2022-11-15T16:47:15;4.50;;;4.10;;
76176;SDS011;64938;47.696;8.066;2022-11-15T16:49:43;4.10;;;3.70;;
76176;SDS011;64938;47.696;8.066;2022-11-15T16:52:09;5.13;;;3.33;;
76176;SDS011;64938;47.696;8.066;2022-11-15T16:54:35;4.47;;;3.63;;
76176;SDS011;64938;47.696;8.066;2022-11-15T16:57:00;4.43;;;4.03;;
76176;SDS011;64938;47.696;8.066;2022-11-15T16:59:29;4.80;;;4.40;;
76176;SDS011;64938;47.696;8.066;2022-11-15T17:02:02;4.17;;;3.80;;
76176;SDS011;64938;47.696;8.066;2022-11-15T17:04:28;4.67;;;3.13;;
76176;SDS011;64938;47.696;8.066;2022-11-15T17:06:58;4.10;;;3.80;;
76176;SDS011;64938;47.696;8.066;2022-11-15T17:09:31;4.00;;;3.60;;
76176;SDS011;64938;47.696;8.066;2022-11-15T17:12:25;3.50;;;3.20;;
76176;SDS011;64938;47.696;8.066;2022-11-15T17:15:02;4.00;;;3.60;;
76176;SDS011;64938;47.696;8.066;2022-11-15T17:17:29;4.00;;;3.60;;
76176;SDS011;64938;47.696;8.066;2022-11-15T17:19:57;3.93;;;3.33;;
76176;SDS011;64938;47.696;8.066;2022-11-15T17:22:23;4.43;;;4.00;;
76176;SDS011;64938;47.696;8.066;2022-11-15T17:24:52;4.33;;;4.00;;
76176;SDS011;64938;47.696;8.066;2022-11-15T17:27:20;6.20;;;3.50;;
76176;SDS011;64938;47.696;8.066;2022-11-15T17:29:46;3.23;;;3.03;;
76176;SDS011;64938;47.696;8.066;2022-11-15T17:32:16;4.07;;;3.67;;